Time;durP1;ratioP1;P1;durP2;ratioP2;P2;SDS_P1;SDS_P2;PMS_P1;PMS_P2;Temp;Humidity;BMP_temperature;BMP_pressure;BME280_temperature;BME280_humidity;BME280_pressure;Samples;Min_cycle;Max_cycle;Signal;HPM_P1;HPM_P2
2022/04/08 00:01:42;;;;;;;13.13;3.45;;;;;;;2.68;100.00;97257.91;5076468;28;20040;-86
2022/04/08 00:04:08;;;;;;;17.50;3.10;;;;;;;2.71;100.00;97262.69;5040615;28;20115;-86
2022/04/08 00:06:34;;;;;;;11.70;2.40;;;;;;;2.67;100.00;97245.94;5057192;28;20487;-86
2022/04/08 00:09:00;;;;;;;16.67;3.17;;;;;;;2.67;100.00;97269.25;5087399;28;20090;-85
2022/04/08 00:11:25;;;;;;;12.77;2.80;;;;;;;2.64;100.00;97269.63;5076288;28;20032;-86
2022/04/08 00:13:53;;;;;;;16.95;2.90;;;;;;;2.71;100.00;97291.19;5075253;28;20394;-86
2022/04/08 00:16:20;;;;;;;12.00;2.25;;;;;;;2.60;100.00;97281.34;5075834;28;20031;-86
2022/04/08 00:18:46;;;;;;;15.95;2.85;;;;;;;2.69;100.00;97289.78;5075896;28;20059;-86
2022/04/08 00:21:12;;;;;;;6.80;2.05;;;;;;;2.71;100.00;97283.41;5041367;28;20032;-86
2022/04/08 00:23:38;;;;;;;5.28;1.67;;;;;;;2.66;100.00;97285.78;5075843;28;20390;-85
2022/04/08 00:26:04;;;;;;;7.97;1.80;;;;;;;2.67;100.00;97292.56;5059990;28;20028;-85
2022/04/08 00:28:30;;;;;;;13.32;2.03;;;;;;;2.46;100.00;97272.69;5063156;28;20024;-86
2022/04/08 00:30:55;;;;;;;13.65;2.08;;;;;;;2.68;100.00;97307.13;5066575;28;20474;-84
2022/04/08 00:33:21;;;;;;;9.13;2.38;;;;;;;2.28;100.00;97249.78;5085421;28;20074;-86
2022/04/08 00:35:47;;;;;;;6.95;1.98;;;;;;;2.67;100.00;97279.59;5048879;28;20033;-86
2022/04/08 00:38:13;;;;;;;10.10;2.47;;;;;;;2.37;100.00;97284.13;5045334;28;20025;-85
2022/04/08 00:40:41;;;;;;;8.77;1.73;;;;;;;2.48;100.00;97286.22;5061858;28;20029;-85
2022/04/08 00:43:16;;;;;;;12.10;2.42;;;;;;;2.69;100.00;97311.31;5043014;28;20531;-84
2022/04/08 00:45:43;;;;;;;10.35;2.03;;;;;;;2.60;100.00;97301.25;5060282;28;20033;-84
2022/04/08 00:48:09;;;;;;;7.78;1.98;;;;;;;2.56;100.00;97283.50;5044224;28;20032;-87
2022/04/08 00:50:39;;;;;;;12.45;2.58;;;;;;;2.60;100.00;97291.72;5061506;28;20482;-85
2022/04/08 00:53:06;;;;;;;7.45;2.70;;;;;;;2.62;100.00;97300.09;5062202;28;20134;-87
2022/04/08 00:55:33;;;;;;;11.38;1.90;;;;;;;2.62;100.00;97320.81;5061896;28;20112;-86
2022/04/08 00:58:03;;;;;;;7.20;2.25;;;;;;;2.67;100.00;97315.88;5063840;28;20486;-87
2022/04/08 01:00:34;;;;;;;9.30;1.98;;;;;;;2.54;100.00;97313.16;5060998;28;20029;-87
2022/04/08 01:03:00;;;;;;;10.48;3.10;;;;;;;2.48;100.00;97291.41;5080429;28;20111;-86
2022/04/08 01:05:26;;;;;;;20.77;2.58;;;;;;;2.48;100.00;97303.56;5061299;28;20446;-87
2022/04/08 01:07:52;;;;;;;9.55;1.98;;;;;;;2.54;100.00;97326.09;5061977;28;20501;-86
2022/04/08 01:10:19;;;;;;;16.10;2.90;;;;;;;2.34;100.00;97294.84;5045619;28;20024;-85
2022/04/08 01:12:45;;;;;;;5.57;2.35;;;;;;;2.49;100.00;97312.91;5044962;28;20072;-86
2022/04/08 01:15:10;;;;;;;10.52;2.30;;;;;;;2.50;100.00;97320.50;5079225;28;20036;-87
2022/04/08 01:17:37;;;;;;;7.32;2.00;;;;;;;2.51;100.00;97326.47;5064197;28;20406;-87
2022/04/08 01:20:04;;;;;;;6.00;2.30;;;;;;;2.52;100.00;97330.69;5080620;28;20047;-88
2022/04/08 01:22:32;;;;;;;7.57;1.98;;;;;;;2.40;100.00;97312.25;5046645;28;20033;-87
2022/04/08 01:25:03;;;;;;;11.30;2.75;;;;;;;2.25;100.00;97292.38;5061825;28;20086;-86
2022/04/08 01:27:28;;;;;;;12.98;2.38;;;;;;;2.45;100.00;97317.66;5062772;28;20032;-88
2022/04/08 01:29:55;;;;;;;8.10;2.08;;;;;;;2.42;100.00;97318.84;5046670;28;20363;-86
2022/04/08 01:32:21;;;;;;;10.48;2.47;;;;;;;2.39;100.00;97316.63;5062032;28;20028;-86
2022/04/08 01:34:49;;;;;;;12.05;2.50;;;;;;;2.31;100.00;97297.81;5045752;28;20024;-87
2022/04/08 01:37:18;;;;;;;11.70;2.95;;;;;;;2.32;100.00;97323.50;5062269;28;20474;-86
2022/04/08 01:39:44;;;;;;;8.75;1.58;;;;;;;2.18;100.00;97306.25;5062472;28;20032;-86
2022/04/08 01:42:09;;;;;;;12.13;2.38;;;;;;;2.21;100.00;97316.25;5051377;28;20028;-85
2022/04/08 01:44:36;;;;;;;9.45;2.17;;;;;;;2.18;100.00;97307.03;5043959;28;20033;-85
2022/04/08 01:47:02;;;;;;;9.45;2.28;;;;;;;2.18;100.00;97298.50;5081293;28;20060;-86
2022/04/08 01:49:28;;;;;;;9.55;2.40;;;;;;;2.20;100.00;97314.66;5060819;28;20028;-86
2022/04/08 01:51:53;;;;;;;7.75;2.42;;;;;;;2.24;100.00;97302.94;5043169;28;20047;-84
2022/04/08 01:54:19;;;;;;;11.60;2.42;;;;;;;2.31;100.00;97314.16;5061477;28;20053;-86
2022/04/08 01:56:44;;;;;;;11.70;2.20;;;;;;;2.36;100.00;97316.19;5058246;28;20024;-86
2022/04/08 01:59:10;;;;;;;12.82;2.92;;;;;;;2.39;100.00;97321.81;5058152;28;20119;-85
2022/04/08 02:01:36;;;;;;;6.13;2.00;;;;;;;2.36;100.00;97317.00;5040216;28;20020;-85
2022/04/08 02:04:03;;;;;;;12.40;2.55;;;;;;;2.11;100.00;97294.03;5057959;28;20053;-86
2022/04/08 02:06:31;;;;;;;10.27;2.35;;;;;;;2.28;100.00;97330.88;5040814;28;20032;-85
2022/04/08 02:12:26;;;;;;;4.95;1.88;;;;;;;2.09;100.00;97314.13;5049276;28;20052;-85
2022/04/08 02:14:54;;;;;;;8.13;1.92;;;;;;;2.07;100.00;97300.56;5021728;28;20387;-85
2022/04/08 02:17:20;;;;;;;12.38;2.38;;;;;;;1.99;100.00;97293.72;5038158;28;20029;-86
2022/04/08 02:19:45;;;;;;;10.73;3.45;;;;;;;2.08;100.00;97312.53;5054099;28;20394;-86
2022/04/08 02:22:16;;;;;;;19.17;2.70;;;;;;;2.06;100.00;97332.59;5034595;28;20025;-85
2022/04/08 02:24:42;;;;;;;9.77;2.65;;;;;;;1.97;100.00;97310.41;5010864;28;20069;-87
2022/04/08 02:27:07;;;;;;;7.05;2.03;;;;;;;1.97;100.00;97300.06;5037697;28;20028;-85
2022/04/08 02:29:34;;;;;;;6.82;2.20;;;;;;;2.02;100.00;97327.97;5056787;28;20120;-84
2022/04/08 02:32:00;;;;;;;16.35;2.65;;;;;;;1.90;100.00;97325.06;5054217;28;20031;-85
2022/04/08 02:34:25;;;;;;;6.43;2.13;;;;;;;1.79;100.00;97306.44;5021776;28;20025;-85
2022/04/08 02:36:51;;;;;;;12.50;2.55;;;;;;;1.94;100.00;97319.34;5023941;28;20033;-86
2022/04/08 02:39:18;;;;;;;7.72;2.50;;;;;;;1.89;100.00;97328.63;5025764;28;20032;-85
2022/04/08 02:41:43;;;;;;;12.05;2.42;;;;;;;1.94;100.00;97344.41;5023376;28;20066;-86
2022/04/08 02:44:09;;;;;;;12.20;2.40;;;;;;;1.87;100.00;97341.75;5054963;28;20036;-88
2022/04/08 02:46:35;;;;;;;9.90;4.25;;;;;;;1.80;100.00;97335.69;5039944;28;20033;-88
2022/04/08 02:49:00;;;;;;;15.65;2.92;;;;;;;1.75;100.00;97348.34;5023874;28;20120;-85
2022/04/08 02:51:28;;;;;;;10.13;2.65;;;;;;;1.61;100.00;97337.03;5056163;28;20033;-84
2022/04/08 02:53:55;;;;;;;8.10;2.67;;;;;;;1.56;100.00;97345.34;5033467;28;20044;-86
2022/04/08 02:56:20;;;;;;;11.27;2.67;;;;;;;1.37;100.00;97328.56;5058294;28;20039;-86
2022/04/08 02:58:48;;;;;;;12.93;2.85;;;;;;;1.47;100.00;97349.78;5058081;28;20466;-86
2022/04/08 03:01:15;;;;;;;11.73;3.75;;;;;;;1.36;100.00;97365.72;5058295;28;20111;-86
2022/04/08 03:03:41;;;;;;;4.75;2.20;;;;;;;1.13;100.00;97345.91;5075020;28;20028;-86
2022/04/08 03:06:06;;;;;;;9.93;2.75;;;;;;;1.08;100.00;97358.56;5075497;28;20132;-86
2022/04/08 03:08:32;;;;;;;9.15;3.17;;;;;;;1.10;100.00;97356.59;5058524;28;20028;-87
2022/04/08 03:10:57;;;;;;;6.43;3.10;;;;;;;1.14;100.00;97352.69;5041410;28;20047;-85
2022/04/08 03:13:23;;;;;;;12.75;2.97;;;;;;;1.25;100.00;97354.84;5041296;28;20024;-87
2022/04/08 03:15:50;;;;;;;15.18;3.85;;;;;;;1.33;100.00;97345.41;5057773;28;20036;-85
2022/04/08 03:18:15;;;;;;;9.95;3.70;;;;;;;1.55;100.00;97360.03;5076441;28;20039;-85
2022/04/08 03:20:41;;;;;;;8.35;3.22;;;;;;;1.66;100.00;97347.66;5076647;28;20394;-86
2022/04/08 03:23:08;;;;;;;10.02;3.50;;;;;;;1.93;100.00;97363.50;5076241;28;20055;-84
2022/04/08 03:25:34;;;;;;;12.40;3.80;;;;;;;1.96;100.00;97350.19;5041443;28;20028;-85
2022/04/08 03:28:00;;;;;;;18.33;4.13;;;;;;;2.03;100.00;97356.28;5058537;28;20082;-86
2022/04/08 03:30:27;;;;;;;8.38;3.22;;;;;;;1.95;100.00;97359.75;5058247;28;20036;-87
2022/04/08 03:32:54;;;;;;;11.43;3.60;;;;;;;2.02;100.00;97361.63;5059650;28;20025;-85
2022/04/08 03:35:21;;;;;;;16.00;3.95;;;;;;;2.14;100.00;97348.03;5042332;28;20052;-86
2022/04/08 03:37:49;;;;;;;6.30;2.85;;;;;;;2.15;100.00;97338.47;5076336;28;20040;-86
2022/04/08 03:40:14;;;;;;;8.35;3.10;;;;;;;1.97;100.00;97315.59;5040754;28;20103;-85
2022/04/08 03:42:40;;;;;;;10.50;2.63;;;;;;;1.96;100.00;97350.19;5042001;28;20052;-85
2022/04/08 03:45:06;;;;;;;16.45;3.80;;;;;;;1.79;100.00;97336.66;5077234;28;20036;-86
2022/04/08 03:47:33;;;;;;;18.40;2.75;;;;;;;1.79;100.00;97340.06;5040904;28;20032;-85
2022/04/08 03:49:59;;;;;;;17.10;3.38;;;;;;;1.67;100.00;97331.97;5043819;28;20032;-86
2022/04/08 03:52:29;;;;;;;8.63;2.95;;;;;;;1.60;100.00;97331.06;5041239;28;20060;-86
2022/04/08 03:54:55;;;;;;;12.32;2.75;;;;;;;1.45;100.00;97309.56;5041268;28;20410;-84
2022/04/08 03:57:20;;;;;;;14.95;6.20;;;;;;;1.42;100.00;97321.88;5080056;28;20043;-86
2022/04/08 03:59:47;;;;;;;8.00;3.50;;;;;;;1.26;100.00;97315.09;5085379;28;20032;-86
2022/04/08 04:02:13;;;;;;;6.25;2.65;;;;;;;1.38;100.00;97345.69;5070452;28;20111;-85
2022/04/08 04:04:39;;;;;;;6.85;2.78;;;;;;;0.98;100.00;97307.13;5093147;28;20102;-85
2022/04/08 04:07:04;;;;;;;9.15;2.58;;;;;;;1.18;100.00;97351.38;5062584;28;20028;-85
2022/04/08 04:09:30;;;;;;;11.13;3.42;;;;;;;1.13;100.00;97340.75;5065751;28;20099;-85
2022/04/08 04:11:56;;;;;;;15.40;4.10;;;;;;;1.12;100.00;97345.13;5047919;28;20403;-86
2022/04/08 04:14:22;;;;;;;8.73;3.25;;;;;;;0.87;100.00;97310.94;5041527;28;20025;-85
2022/04/08 04:16:48;;;;;;;11.45;4.30;;;;;;;0.97;100.00;97352.03;5059179;28;20471;-85
2022/04/08 04:19:14;;;;;;;18.55;4.45;;;;;;;0.72;100.00;97318.66;5075981;28;20043;-85
2022/04/08 04:21:40;;;;;;;8.68;3.55;;;;;;;0.94;100.00;97350.59;5056718;28;20540;-86
2022/04/08 04:24:07;;;;;;;11.50;3.95;;;;;;;0.90;100.00;97357.09;5041020;28;20025;-88
2022/04/08 04:26:32;;;;;;;11.68;4.28;;;;;;;1.10;100.00;97359.19;5057877;28;20405;-86
2022/04/08 04:28:58;;;;;;;12.98;4.15;;;;;;;1.08;100.00;97338.72;5088837;28;20141;-86
2022/04/08 04:31:24;;;;;;;7.38;4.05;;;;;;;1.41;100.00;97374.56;5058123;28;20037;-86
2022/04/08 04:33:49;;;;;;;11.35;3.92;;;;;;;1.28;100.00;97302.78;5058915;28;20391;-86
2022/04/08 04:36:15;;;;;;;12.18;4.55;;;;;;;1.63;100.00;97335.06;5059185;28;20035;-84
2022/04/08 04:38:40;;;;;;;10.20;3.45;;;;;;;1.99;100.00;97375.75;5057232;28;20107;-85
2022/04/08 04:41:06;;;;;;;11.55;4.28;;;;;;;1.97;100.00;97350.03;5091527;28;20032;-85
2022/04/08 04:43:32;;;;;;;6.55;3.03;;;;;;;2.09;100.00;97342.59;5057856;28;20024;-86
2022/04/08 04:45:57;;;;;;;7.70;3.30;;;;;;;2.33;100.00;97350.22;5057752;28;20050;-85
2022/04/08 04:48:24;;;;;;;9.65;3.80;;;;;;;2.41;100.00;97326.78;5058482;28;20058;-86
2022/04/08 04:50:49;;;;;;;6.90;3.30;;;;;;;2.30;100.00;97299.59;5057565;28;20040;-86
2022/04/08 04:53:15;;;;;;;13.05;3.50;;;;;;;2.55;100.00;97322.53;5074307;28;20045;-86
2022/04/08 04:55:40;;;;;;;12.13;3.50;;;;;;;2.28;100.00;97312.75;5073195;28;20024;-85
2022/04/08 04:58:06;;;;;;;13.48;3.47;;;;;;;2.34;100.00;97323.34;5058643;28;20116;-86
2022/04/08 05:00:32;;;;;;;10.63;4.00;;;;;;;2.01;100.00;97290.94;5057127;28;20036;-86
2022/04/08 05:02:57;;;;;;;9.30;4.35;;;;;;;1.65;100.00;97274.41;5056720;28;20027;-86
2022/04/08 05:05:23;;;;;;;9.90;3.85;;;;;;;1.62;100.00;97292.09;5059358;28;20071;-86
2022/04/08 05:07:48;;;;;;;9.35;4.18;;;;;;;1.58;100.00;97302.00;5057751;28;20032;-86
2022/04/08 05:10:14;;;;;;;11.38;4.25;;;;;;;1.46;100.00;97309.41;5056866;28;20116;-86
2022/04/08 05:12:39;;;;;;;7.78;4.53;;;;;;;1.33;100.00;97312.59;5060641;28;20028;-86
2022/04/08 05:15:09;;;;;;;14.02;5.80;;;;;;;1.10;100.00;97321.25;5046320;28;20067;-87
2022/04/08 05:17:36;;;;;;;8.77;4.95;;;;;;;1.13;100.00;97313.13;5062025;28;20047;-85
2022/04/08 05:20:03;;;;;;;10.82;4.88;;;;;;;1.19;100.00;97329.72;5061990;28;20035;-87
2022/04/08 05:22:28;;;;;;;15.55;6.18;;;;;;;1.06;100.00;97324.34;5090409;28;20032;-85
2022/04/08 05:24:58;;;;;;;13.80;6.13;;;;;;;1.04;100.00;97331.47;5059973;28;20387;-85
2022/04/08 05:27:24;;;;;;;14.30;7.70;;;;;;;1.10;100.00;97330.75;5077369;28;20033;-86
2022/04/08 05:29:50;;;;;;;14.52;6.43;;;;;;;1.08;100.00;97332.72;5061508;28;20078;-84
2022/04/08 05:32:15;;;;;;;13.93;6.68;;;;;;;1.14;100.00;97332.00;5077634;28;20028;-85
2022/04/08 05:34:41;;;;;;;13.13;6.03;;;;;;;0.90;100.00;97305.44;5060536;28;20163;-86
2022/04/08 05:37:07;;;;;;;17.00;7.00;;;;;;;1.08;100.00;97337.88;5080592;28;20052;-85
2022/04/08 05:39:33;;;;;;;10.35;5.82;;;;;;;0.77;100.00;97294.88;5060004;28;20753;-85
2022/04/08 05:41:59;;;;;;;19.77;7.20;;;;;;;0.85;100.00;97318.84;5043976;28;20029;-85
2022/04/08 05:44:24;;;;;;;12.35;6.10;;;;;;;0.85;100.00;97305.94;5059706;28;20123;-86
2022/04/08 05:46:50;;;;;;;14.05;6.18;;;;;;;1.03;100.00;97337.63;5078970;28;20106;-86
2022/04/08 05:49:16;;;;;;;15.10;6.80;;;;;;;1.08;100.00;97337.88;5078605;28;20090;-86
2022/04/08 05:51:41;;;;;;;13.77;6.22;;;;;;;1.03;100.00;97324.69;5060740;28;20040;-84
2022/04/08 05:54:07;;;;;;;12.77;5.43;;;;;;;1.14;100.00;97337.19;5061663;28;20044;-86
2022/04/08 05:56:33;;;;;;;14.63;6.03;;;;;;;1.11;100.00;97322.03;5065446;28;20062;-88
2022/04/08 05:58:58;;;;;;;7.20;5.07;;;;;;;1.20;100.00;97333.91;5064423;28;20032;-86
2022/04/08 06:01:24;;;;;;;10.68;4.72;;;;;;;1.38;100.00;97336.13;5063153;28;20025;-86
2022/04/08 06:03:51;;;;;;;10.45;4.60;;;;;;;1.47;100.00;97347.19;5066323;28;20092;-89
2022/04/08 06:06:17;;;;;;;9.27;5.03;;;;;;;1.42;100.00;97334.00;5055439;28;20032;-87
2022/04/08 06:08:43;;;;;;;17.02;5.20;;;;;;;1.31;100.00;97308.59;5053956;28;20037;-87
2022/04/08 06:11:08;;;;;;;7.63;4.40;;;;;;;1.38;100.00;97312.09;5053878;28;20032;-87
2022/04/08 06:13:34;;;;;;;12.18;4.53;;;;;;;1.31;100.00;97300.84;5064040;28;20020;-87
2022/04/08 06:16:00;;;;;;;8.77;4.38;;;;;;;1.50;100.00;97315.81;5046294;28;20039;-88
2022/04/08 06:18:25;;;;;;;8.68;4.03;;;;;;;1.69;100.00;97339.53;5047018;28;20051;-89
2022/04/08 06:20:51;;;;;;;9.95;4.57;;;;;;;1.56;100.00;97320.25;5081209;28;20036;-90
2022/04/08 06:23:17;;;;;;;6.70;3.63;;;;;;;1.49;100.00;97292.72;5045284;28;20044;-87
2022/04/08 06:25:42;;;;;;;8.48;3.45;;;;;;;1.76;100.00;97326.69;5063504;28;20478;-89
2022/04/08 06:28:08;;;;;;;7.03;3.33;;;;;;;1.90;100.00;97338.81;5047256;28;20056;-88
2022/04/08 06:30:35;;;;;;;7.90;3.22;;;;;;;1.93;100.00;97329.84;5080080;28;20037;-86
2022/04/08 06:33:02;;;;;;;8.25;3.13;;;;;;;2.02;100.00;97331.38;5070128;28;20101;-92
2022/04/08 06:35:27;;;;;;;9.48;3.40;;;;;;;2.11;100.00;97332.06;5089044;28;20103;-89
2022/04/08 06:38:01;;;;;;;8.25;2.70;;;;;;;2.02;100.00;97318.44;5092436;28;20096;-87
2022/04/08 06:40:27;;;;;;;4.82;3.03;;;;;;;2.13;100.00;97314.56;5068158;28;20036;-87
2022/04/08 06:42:59;;;;;;;5.28;2.60;;;;;;;2.25;100.00;97322.66;5086040;28;20478;-89
2022/04/08 06:45:26;;;;;;;9.43;3.28;;;;;;;2.17;100.00;97320.97;5113054;28;20047;-89
2022/04/08 06:47:53;;;;;;;7.25;3.03;;;;;;;2.27;100.00;97331.84;5086726;28;20393;-90
2022/04/08 06:50:19;;;;;;;8.35;2.60;;;;;;;2.30;100.00;97322.91;5085759;28;20036;-90
2022/04/08 06:52:46;;;;;;;4.43;2.33;;;;;;;2.49;100.00;97331.06;5077670;28;20047;-88
2022/04/08 06:55:13;;;;;;;6.40;2.60;;;;;;;2.43;100.00;97333.41;5078513;28;20032;-88
2022/04/08 06:57:39;;;;;;;4.55;2.20;;;;;;;2.57;100.00;97336.13;5041579;28;20032;-88
2022/04/08 07:00:11;;;;;;;5.97;2.42;;;;;;;2.60;100.00;97329.75;5058063;28;20382;-86
2022/04/08 07:02:37;;;;;;;7.43;2.30;;;;;;;2.74;100.00;97328.06;5056536;28;20097;-86
2022/04/08 07:05:03;;;;;;;3.95;2.38;;;;;;;2.60;100.00;97309.84;5070797;28;20467;-87
2022/04/08 07:07:34;;;;;;;6.97;1.83;;;;;;;2.86;100.00;97342.13;5058082;28;20037;-86
2022/04/08 07:10:00;;;;;;;8.75;2.17;;;;;;;2.82;100.00;97328.75;5069988;28;20117;-86
2022/04/08 07:12:27;;;;;;;9.10;2.53;;;;;;;2.79;100.00;97302.44;5078235;28;20064;-86
2022/04/08 07:14:53;;;;;;;5.03;1.75;;;;;;;2.88;100.00;97314.25;5081339;28;20024;-88
2022/04/08 07:17:25;;;;;;;5.97;1.90;;;;;;;3.09;100.00;97333.34;5058943;28;20493;-88
2022/04/08 07:19:52;;;;;;;6.15;1.60;;;;;;;3.05;100.00;97313.97;5079631;28;20088;-88
2022/04/08 07:22:17;;;;;;;5.07;2.03;;;;;;;3.13;100.00;97324.19;5059286;28;20094;-87
2022/04/08 07:24:43;;;;;;;4.07;1.80;;;;;;;3.13;100.00;97316.41;5044177;28;20048;-89
2022/04/08 07:27:12;;;;;;;3.72;1.60;;;;;;;3.29;100.00;97346.47;5043929;28;20478;-88
2022/04/08 07:29:37;;;;;;;3.58;1.50;;;;;;;3.19;100.00;97314.84;5092920;28;20024;-85
2022/04/08 07:32:04;;;;;;;3.60;1.60;;;;;;;3.25;100.00;97299.34;5058324;28;20496;-87
2022/04/08 07:34:29;;;;;;;2.88;1.50;;;;;;;3.12;100.00;97301.84;5059390;28;20017;-86
2022/04/08 07:36:55;;;;;;;5.80;1.90;;;;;;;3.27;100.00;97309.53;5075032;28;20036;-89
2022/04/08 07:39:20;;;;;;;6.68;1.63;;;;;;;3.28;100.00;97311.94;5076171;28;20040;-87
2022/04/08 07:41:46;;;;;;;4.13;1.60;;;;;;;3.33;100.00;97320.94;5041817;28;20081;-88
2022/04/08 07:44:12;;;;;;;2.58;1.42;;;;;;;3.59;100.00;97335.84;5045229;28;20115;-87
2022/04/08 07:46:38;;;;;;;4.15;1.50;;;;;;;3.51;100.00;97329.00;5070345;28;20013;-86
2022/04/08 07:49:04;;;;;;;4.63;1.48;;;;;;;3.59;100.00;97333.25;5057117;28;20040;-87
2022/04/08 07:51:29;;;;;;;2.75;1.30;;;;;;;3.14;100.00;97279.13;5073486;28;20028;-86
2022/04/08 07:53:55;;;;;;;5.22;1.45;;;;;;;3.48;100.00;97337.19;5070814;28;20131;-88
2022/04/08 07:56:22;;;;;;;2.63;1.38;;;;;;;3.52;100.00;97322.03;5066601;28;20446;-87
2022/04/08 07:58:48;;;;;;;5.60;1.60;;;;;;;3.39;100.00;97302.81;5075246;28;20044;-87
2022/04/08 08:01:14;;;;;;;2.42;1.40;;;;;;;3.63;100.00;97313.72;5078910;28;20437;-89
2022/04/08 08:03:42;;;;;;;3.83;2.10;;;;;;;3.67;100.00;97340.91;5042729;28;20549;-89
2022/04/08 08:06:08;;;;;;;6.75;1.80;;;;;;;3.51;100.00;97305.66;5059830;28;20032;-89
2022/04/08 08:08:34;;;;;;;4.05;1.92;;;;;;;3.86;100.00;97334.19;5043129;28;20032;-89
2022/04/08 08:11:00;;;;;;;5.95;2.40;;;;;;;3.49;100.00;97307.66;5044552;28;20064;-86
2022/04/08 08:13:26;;;;;;;3.83;1.70;;;;;;;3.91;100.00;97350.97;5042977;28;20051;-88
2022/04/08 08:15:55;;;;;;;4.43;2.10;;;;;;;3.92;100.00;97337.00;5049178;28;20040;-88
2022/04/08 08:18:22;;;;;;;3.00;1.80;;;;;;;3.75;100.00;97307.97;5042162;28;20032;-87
2022/04/08 08:20:48;;;;;;;4.00;1.60;;;;;;;3.72;100.00;97280.59;5041654;28;20073;-88
2022/04/08 08:23:14;;;;;;;2.47;1.65;;;;;;;3.92;100.00;97339.59;5044733;28;20037;-90
2022/04/08 08:25:42;;;;;;;5.20;1.45;;;;;;;3.89;100.00;97321.81;5044908;28;20039;-88
2022/04/08 08:28:08;;;;;;;3.60;1.60;;;;;;;4.00;100.00;97321.25;5060318;28;20028;-86
2022/04/08 08:30:34;;;;;;;3.70;1.63;;;;;;;4.33;100.00;97346.53;5057948;28;20555;-88
2022/04/08 08:33:04;;;;;;;5.82;1.70;;;;;;;3.95;100.00;97331.44;5076123;28;20114;-86
2022/04/08 08:35:30;;;;;;;4.80;1.90;;;;;;;4.13;100.00;97339.50;5092888;28;20074;-87
2022/04/08 08:37:56;;;;;;;3.58;1.70;;;;;;;4.10;100.00;97345.03;5058713;28;20029;-86
2022/04/08 08:40:23;;;;;;;3.92;1.55;;;;;;;4.07;100.00;97334.28;5043826;28;20496;-88
2022/04/08 08:42:49;;;;;;;3.92;1.40;;;;;;;4.19;100.00;97337.09;5046803;28;20052;-89
2022/04/08 08:45:17;;;;;;;2.10;1.55;;;;;;;4.31;100.00;97348.50;5079387;28;20037;-89
2022/04/08 08:47:48;;;;;;;5.70;1.52;;;;;;;4.29;100.00;97355.69;5084375;28;20036;-90
2022/04/08 08:50:15;;;;;;;4.97;1.98;;;;;;;4.41;100.00;97361.13;5065351;28;20036;-90
2022/04/08 08:52:42;;;;;;;6.18;1.90;;;;;;;4.31;100.00;97351.09;5067084;28;20048;-89
2022/04/08 08:55:09;;;;;;;2.67;1.75;;;;;;;4.37;100.00;97367.72;5067531;28;20024;-88
2022/04/08 08:57:34;;;;;;;5.15;2.03;;;;;;;4.43;100.00;97359.94;5051121;28;20032;-89
2022/04/08 09:00:13;;;;;;;5.22;1.75;;;;;;;4.88;100.00;97374.19;5066360;28;20036;-91
2022/04/08 09:02:39;;;;;;;5.78;1.80;;;;;;;4.72;100.00;97371.00;5035877;28;20032;-90
2022/04/08 09:05:15;;;;;;;6.30;1.80;;;;;;;4.61;100.00;97374.16;5066531;28;20025;-90
2022/04/08 09:07:41;;;;;;;4.35;1.98;;;;;;;4.80;100.00;97374.41;5084030;28;20028;-90
2022/04/08 09:10:08;;;;;;;9.00;1.98;;;;;;;4.58;100.00;97341.56;5051905;28;20051;-89
2022/04/08 09:12:33;;;;;;;5.18;1.80;;;;;;;4.46;100.00;97339.75;5052997;28;20032;-90
2022/04/08 09:15:01;;;;;;;3.55;1.50;;;;;;;4.56;100.00;97353.19;5051726;28;20037;-89
2022/04/08 09:17:33;;;;;;;3.72;2.25;;;;;;;4.61;100.00;97349.97;5053099;28;20029;-90
2022/04/08 09:19:59;;;;;;;4.70;2.20;;;;;;;4.69;100.00;97370.59;5050859;28;20558;-89
2022/04/08 09:22:28;;;;;;;4.22;1.88;;;;;;;4.77;100.00;97390.41;5050534;28;20043;-89
2022/04/08 09:25:04;;;;;;;3.80;1.70;;;;;;;4.54;100.00;97373.38;5050499;28;20064;-90
2022/04/08 09:27:33;;;;;;;8.00;1.83;;;;;;;4.69;100.00;97394.75;5066739;28;20028;-90
2022/04/08 09:29:59;;;;;;;4.05;1.60;;;;;;;4.65;100.00;97370.19;5050146;28;20040;-89
2022/04/08 09:32:26;;;;;;;3.67;1.42;;;;;;;4.71;100.00;97384.97;5051608;28;20116;-89
2022/04/08 09:34:52;;;;;;;2.72;1.95;;;;;;;4.92;100.00;97388.44;5067506;28;20029;-90
2022/04/08 09:37:18;;;;;;;6.22;2.10;;;;;;;4.84;100.00;97388.59;5050542;28;20055;-89
2022/04/08 09:40:05;;;;;;;3.53;1.60;;;;;;;5.12;100.00;97408.44;5085892;28;20092;-91
2022/04/08 09:42:50;;;;;;;5.20;1.80;;;;;;;4.78;100.00;97392.78;5051074;28;20040;-89
2022/04/08 09:45:30;;;;;;;6.13;2.05;;;;;;;5.10;100.00;97421.63;5049182;28;20054;-89
2022/04/08 09:48:00;;;;;;;3.85;2.03;;;;;;;4.86;100.00;97395.22;5052832;28;20032;-88
2022/04/08 09:50:26;;;;;;;7.85;2.55;;;;;;;5.02;100.00;97382.00;5049908;28;20032;-90
2022/04/08 09:52:53;;;;;;;10.20;2.35;;;;;;;5.19;100.00;97409.22;5058225;28;20109;-91
2022/04/08 09:55:21;;;;;;;4.20;2.20;;;;;;;5.33;100.00;97414.44;5056891;28;20025;-90
2022/04/08 09:57:50;;;;;;;5.40;2.78;;;;;;;5.50;100.00;97425.22;5083544;28;20557;-91
2022/04/08 10:00:16;;;;;;;8.95;2.85;;;;;;;5.14;100.00;97396.81;5050758;28;20028;-92
2022/04/08 10:02:45;;;;;;;5.20;2.80;;;;;;;5.14;100.00;97396.81;5073713;28;20019;-91
2022/04/08 10:05:12;;;;;;;5.45;2.90;;;;;;;5.41;100.00;97416.84;5050554;28;20090;-90
2022/04/08 10:07:40;;;;;;;7.40;2.90;;;;;;;5.58;100.00;97402.41;5050492;28;20029;-91
2022/04/08 10:10:21;;;;;;;4.45;2.53;;;;;;;5.37;100.00;97426.84;5051421;28;20029;-91
2022/04/08 10:13:24;;;;;;;6.32;2.40;;;;;;;5.39;100.00;97430.03;5050752;28;20032;-88
2022/04/08 10:16:09;;;;;;;7.43;2.65;;;;;;;5.53;100.00;97438.66;5067958;28;20024;-89
2022/04/08 10:18:40;;;;;;;4.00;2.83;;;;;;;5.75;100.00;97435.81;5050074;28;20029;-91
2022/04/08 10:21:06;;;;;;;3.47;2.17;;;;;;;5.65;100.00;97427.63;5063597;28;20409;-89
2022/04/08 10:23:40;;;;;;;8.70;3.00;;;;;;;5.65;100.00;97401.59;5063869;28;20117;-89
2022/04/08 10:26:18;;;;;;;7.85;2.50;;;;;;;6.00;100.00;97414.31;5099060;28;20047;-91
2022/04/08 10:28:44;;;;;;;3.33;1.90;;;;;;;6.17;100.00;97401.66;5066095;28;20417;-89
2022/04/08 10:31:15;;;;;;;5.15;2.47;;;;;;;6.26;100.00;97413.47;5066563;28;20032;-91
2022/04/08 10:33:49;;;;;;;5.57;2.30;;;;;;;6.46;100.00;97420.41;5080140;28;20032;-91
2022/04/08 10:36:15;;;;;;;5.60;2.17;;;;;;;6.55;100.00;97436.59;5068774;28;20062;-90
2022/04/08 10:38:40;;;;;;;5.88;2.45;;;;;;;6.14;100.00;97387.25;5100235;28;20051;-91
2022/04/08 10:41:09;;;;;;;4.57;3.42;;;;;;;6.51;100.00;97409.38;5083792;28;20113;-89
2022/04/08 10:43:43;;;;;;;7.05;3.80;;;;;;;6.80;100.00;97448.91;5052946;28;20054;-90
2022/04/08 10:46:09;;;;;;;7.75;4.85;;;;;;;6.64;100.00;97448.38;5075792;28;20036;-88
2022/04/08 10:48:35;;;;;;;8.02;4.55;;;;;;;6.96;100.00;97437.97;5060382;28;20040;-89
2022/04/08 10:51:14;;;;;;;5.75;4.47;;;;;;;7.55;100.00;97449.97;5041549;28;20032;-89
2022/04/08 10:53:42;;;;;;;5.72;5.00;;;;;;;7.89;100.00;97445.25;5073102;28;20143;-89
2022/04/08 10:56:13;;;;;;;5.32;4.82;;;;;;;7.98;100.00;97448.38;5076574;28;20119;-87
2022/04/08 10:58:42;;;;;;;7.82;5.40;;;;;;;7.45;100.00;97450.47;5057660;28;20082;-88
2022/04/08 11:01:24;;;;;;;5.95;4.88;;;;;;;7.38;100.00;97434.88;5057426;28;20402;-89
2022/04/08 11:04:01;;;;;;;6.60;5.45;;;;;;;7.50;100.00;97463.69;5046554;28;20514;-89
2022/04/08 11:06:27;;;;;;;6.03;5.50;;;;;;;7.40;98.60;97453.75;5044072;28;20032;-88
2022/04/08 11:08:53;;;;;;;6.20;5.60;;;;;;;7.27;98.05;97454.63;5078511;28;20513;-88
2022/04/08 11:11:29;;;;;;;6.60;5.65;;;;;;;6.95;99.77;97462.47;5050164;28;20040;-89
2022/04/08 11:14:00;;;;;;;7.30;5.40;;;;;;;7.41;98.85;97433.63;5047686;28;20038;-89
2022/04/08 11:16:33;;;;;;;6.28;5.63;;;;;;;7.92;100.00;97467.56;5045816;28;20413;-88
2022/04/08 11:19:00;;;;;;;6.25;5.63;;;;;;;7.71;97.73;97453.88;5045298;28;20040;-88
2022/04/08 11:21:28;;;;;;;5.70;5.30;;;;;;;7.51;97.47;97433.97;5062419;28;20497;-89
2022/04/08 11:24:01;;;;;;;5.63;5.18;;;;;;;7.34;94.99;97453.78;5076834;28;20037;-87
2022/04/08 11:26:31;;;;;;;6.55;5.38;;;;;;;7.24;96.11;97444.59;5037592;28;20538;-89
2022/04/08 11:29:09;;;;;;;6.38;5.85;;;;;;;7.26;96.50;97453.00;5062379;28;20085;-88
2022/04/08 11:31:38;;;;;;;5.57;4.90;;;;;;;7.43;96.56;97442.06;5045394;28;20043;-88
2022/04/08 11:34:05;;;;;;;5.57;5.03;;;;;;;7.76;96.66;97445.38;5040265;28;20390;-88
2022/04/08 11:36:32;;;;;;;5.57;5.05;;;;;;;7.92;96.54;97450.03;5061437;28;20032;-89